sensor_id;sensor_type;location;lat;lon;timestamp;pressure;altitude;pressure_sealevel;temperature;humidity
27685;BME280;46113;50.130;8.526;2024-03-07T00:00:15;99809.38;;;-1.56;88.30
27685;BME280;46113;50.130;8.526;2024-03-07T00:02:45;99817.16;;;-1.56;88.48
27685;BME280;46113;50.130;8.526;2024-03-07T00:05:12;99809.38;;;-1.56;88.09
27685;BME280;46113;50.130;8.526;2024-03-07T00:07:42;99811.13;;;-1.64;87.84
27685;BME280;46113;50.130;8.526;2024-03-07T00:10:09;99813.69;;;-1.60;88.67
27685;BME280;46113;50.130;8.526;2024-03-07T00:12:38;99814.59;;;-1.58;87.62
27685;BME280;46113;50.130;8.526;2024-03-07T00:15:06;99816.28;;;-1.60;87.61
27685;BME280;46113;50.130;8.526;2024-03-07T00:17:33;99812.84;;;-1.63;87.92
27685;BME280;46113;50.130;8.526;2024-03-07T00:20:02;99813.69;;;-1.66;87.35
27685;BME280;46113;50.130;8.526;2024-03-07T00:22:31;99815.44;;;-1.71;87.39
27685;BME280;46113;50.130;8.526;2024-03-07T00:24:58;99811.97;;;-1.76;87.04
27685;BME280;46113;50.130;8.526;2024-03-07T00:27:25;99817.13;;;-1.84;87.23
27685;BME280;46113;50.130;8.526;2024-03-07T00:29:52;99824.03;;;-1.91;87.10
27685;BME280;46113;50.130;8.526;2024-03-07T00:32:20;99816.22;;;-2.00;87.47
27685;BME280;46113;50.130;8.526;2024-03-07T00:34:48;99823.09;;;-2.12;87.75
27685;BME280;46113;50.130;8.526;2024-03-07T00:37:15;99825.69;;;-2.12;87.86
27685;BME280;46113;50.130;8.526;2024-03-07T00:39:42;99823.09;;;-2.07;87.53
27685;BME280;46113;50.130;8.526;2024-03-07T00:42:09;99818.81;;;-2.05;87.42
27685;BME280;46113;50.130;8.526;2024-03-07T00:44:36;99818.81;;;-2.06;87.47
27685;BME280;46113;50.130;8.526;2024-03-07T00:47:03;99803.25;;;-2.03;88.12
27685;BME280;46113;50.130;8.526;2024-03-07T00:49:30;99813.66;;;-1.97;87.48
27685;BME280;46113;50.130;8.526;2024-03-07T00:51:58;99811.03;;;-2.00;87.51
27685;BME280;46113;50.130;8.526;2024-03-07T00:54:25;99817.09;;;-2.01;87.16
27685;BME280;46113;50.130;8.526;2024-03-07T00:56:52;99809.28;;;-2.03;87.37
27685;BME280;46113;50.130;8.526;2024-03-07T00:59:19;99816.22;;;-2.05;87.31
27685;BME280;46113;50.130;8.526;2024-03-07T01:01:47;99810.13;;;-2.13;87.50
27685;BME280;46113;50.130;8.526;2024-03-07T01:04:15;99807.53;;;-2.19;87.17
27685;BME280;46113;50.130;8.526;2024-03-07T01:06:42;99798.84;;;-2.22;87.90
27685;BME280;46113;50.130;8.526;2024-03-07T01:09:09;99803.16;;;-2.27;87.60
27685;BME280;46113;50.130;8.526;2024-03-07T01:11:44;99796.25;;;-2.32;87.33
27685;BME280;46113;50.130;8.526;2024-03-07T01:14:14;99796.22;;;-2.40;87.72
27685;BME280;46113;50.130;8.526;2024-03-07T01:16:41;99788.41;;;-2.43;87.57
27685;BME280;46113;50.130;8.526;2024-03-07T01:19:08;99794.47;;;-2.49;88.00
27685;BME280;46113;50.130;8.526;2024-03-07T01:21:35;99792.69;;;-2.53;87.69
27685;BME280;46113;50.130;8.526;2024-03-07T01:24:05;99790.09;;;-2.55;87.22
27685;BME280;46113;50.130;8.526;2024-03-07T01:26:32;99787.50;;;-2.61;87.67
27685;BME280;46113;50.130;8.526;2024-03-07T01:29:02;99787.47;;;-2.63;87.55
27685;BME280;46113;50.130;8.526;2024-03-07T01:31:29;99790.03;;;-2.66;87.78
27685;BME280;46113;50.130;8.526;2024-03-07T01:33:55;99788.31;;;-2.67;87.37
27685;BME280;46113;50.130;8.526;2024-03-07T01:36:22;99783.13;;;-2.71;88.06
27685;BME280;46113;50.130;8.526;2024-03-07T01:38:49;99783.13;;;-2.71;87.70
27685;BME280;46113;50.130;8.526;2024-03-07T01:41:16;99777.03;;;-2.80;87.36
27685;BME280;46113;50.130;8.526;2024-03-07T01:43:43;99779.59;;;-2.86;87.51
27685;BME280;46113;50.130;8.526;2024-03-07T01:46:10;99782.13;;;-2.89;88.08
27685;BME280;46113;50.130;8.526;2024-03-07T01:48:37;99784.66;;;-3.00;88.07
27685;BME280;46113;50.130;8.526;2024-03-07T01:51:05;99775.22;;;-2.96;88.19
27685;BME280;46113;50.130;8.526;2024-03-07T01:53:33;99776.94;;;-2.91;87.95
27685;BME280;46113;50.130;8.526;2024-03-07T01:56:02;99774.38;;;-2.92;87.43
27685;BME280;46113;50.130;8.526;2024-03-07T01:58:29;99768.28;;;-2.96;87.79
27685;BME280;46113;50.130;8.526;2024-03-07T02:00:58;99760.53;;;-2.94;87.46
27685;BME280;46113;50.130;8.526;2024-03-07T02:03:26;99751.91;;;-2.96;87.36
27685;BME280;46113;50.130;8.526;2024-03-07T02:05:52;99759.56;;;-3.09;87.93
27685;BME280;46113;50.130;8.526;2024-03-07T02:08:19;99760.50;;;-3.02;88.17
27685;BME280;46113;50.130;8.526;2024-03-07T02:10:46;99758.75;;;-3.00;88.27
27685;BME280;46113;50.130;8.526;2024-03-07T02:13:18;99761.38;;;-2.97;88.05
27685;BME280;46113;50.130;8.526;2024-03-07T02:15:45;99753.63;;;-2.97;87.65
27685;BME280;46113;50.130;8.526;2024-03-07T02:18:11;99752.69;;;-3.04;87.63
27685;BME280;46113;50.130;8.526;2024-03-07T02:20:43;99746.63;;;-3.09;87.66
27685;BME280;46113;50.130;8.526;2024-03-07T02:23:10;99757.00;;;-3.12;87.80
27685;BME280;46113;50.130;8.526;2024-03-07T02:25:37;99746.56;;;-3.18;87.73
27685;BME280;46113;50.130;8.526;2024-03-07T02:28:04;99750.00;;;-3.25;88.07
27685;BME280;46113;50.130;8.526;2024-03-07T02:30:31;99752.56;;;-3.25;87.59
27685;BME280;46113;50.130;8.526;2024-03-07T02:32:59;99745.66;;;-3.28;87.94
27685;BME280;46113;50.130;8.526;2024-03-07T02:35:34;99750.00;;;-3.25;87.87
27685;BME280;46113;50.130;8.526;2024-03-07T02:38:03;99755.13;;;-3.29;87.85
27685;BME280;46113;50.130;8.526;2024-03-07T02:40:31;99753.34;;;-3.39;87.90
27685;BME280;46113;50.130;8.526;2024-03-07T02:42:58;99748.22;;;-3.33;88.07
27685;BME280;46113;50.130;8.526;2024-03-07T02:45:24;99749.06;;;-3.37;87.40
27685;BME280;46113;50.130;8.526;2024-03-07T02:47:51;99746.41;;;-3.46;87.38
27685;BME280;46113;50.130;8.526;2024-03-07T02:50:20;99752.44;;;-3.43;88.21
27685;BME280;46113;50.130;8.526;2024-03-07T02:52:49;99749.84;;;-3.44;87.91
27685;BME280;46113;50.130;8.526;2024-03-07T02:55:16;99754.13;;;-3.49;87.44
27685;BME280;46113;50.130;8.526;2024-03-07T02:57:43;99742.00;;;-3.53;87.57
27685;BME280;46113;50.130;8.526;2024-03-07T03:00:10;99743.72;;;-3.57;87.55
27685;BME280;46113;50.130;8.526;2024-03-07T03:02:47;99741.13;;;-3.56;87.64
27685;BME280;46113;50.130;8.526;2024-03-07T03:05:18;99742.88;;;-3.58;87.58
27685;BME280;46113;50.130;8.526;2024-03-07T03:07:46;99739.41;;;-3.58;88.03
27685;BME280;46113;50.130;8.526;2024-03-07T03:10:25;99741.94;;;-3.61;87.79
27685;BME280;46113;50.130;8.526;2024-03-07T03:12:54;99739.34;;;-3.61;87.89
27685;BME280;46113;50.130;8.526;2024-03-07T03:15:21;99741.09;;;-3.63;87.70
27685;BME280;46113;50.130;8.526;2024-03-07T03:17:48;99734.13;;;-3.68;87.81
27685;BME280;46113;50.130;8.526;2024-03-07T03:20:15;99730.66;;;-3.76;87.72
27685;BME280;46113;50.130;8.526;2024-03-07T03:22:52;99732.34;;;-3.78;87.65
27685;BME280;46113;50.130;8.526;2024-03-07T03:25:40;99728.88;;;-3.78;88.41
27685;BME280;46113;50.130;8.526;2024-03-07T03:28:08;99729.72;;;-3.79;87.77
27685;BME280;46113;50.130;8.526;2024-03-07T03:30:38;99733.13;;;-3.84;87.88
27685;BME280;46113;50.130;8.526;2024-03-07T03:33:05;99732.22;;;-3.92;87.33
27685;BME280;46113;50.130;8.526;2024-03-07T03:35:37;99733.13;;;-3.87;87.97
27685;BME280;46113;50.130;8.526;2024-03-07T03:38:04;99734.81;;;-3.92;87.85
27685;BME280;46113;50.130;8.526;2024-03-07T03:40:31;99734.81;;;-3.90;88.05
27685;BME280;46113;50.130;8.526;2024-03-07T03:42:58;99732.19;;;-3.95;88.18
27685;BME280;46113;50.130;8.526;2024-03-07T03:45:25;99727.03;;;-3.92;88.21
27685;BME280;46113;50.130;8.526;2024-03-07T03:47:53;99721.88;;;-3.92;88.08
27685;BME280;46113;50.130;8.526;2024-03-07T03:50:21;99723.59;;;-3.91;88.87
27685;BME280;46113;50.130;8.526;2024-03-07T03:52:51;99720.19;;;-3.87;87.78
27685;BME280;46113;50.130;8.526;2024-03-07T03:55:18;99721.00;;;-3.96;88.34
27685;BME280;46113;50.130;8.526;2024-03-07T03:57:45;99714.06;;;-4.00;87.24
27685;BME280;46113;50.130;8.526;2024-03-07T04:00:14;99723.50;;;-4.02;87.92
27685;BME280;46113;50.130;8.526;2024-03-07T04:02:45;99718.25;;;-4.13;88.19
27685;BME280;46113;50.130;8.526;2024-03-07T04:05:17;99723.47;;;-4.06;87.65
27685;BME280;46113;50.130;8.526;2024-03-07T04:07:45;99718.25;;;-4.13;87.66
27685;BME280;46113;50.130;8.526;2024-03-07T04:10:14;99722.53;;;-4.16;86.82
27685;BME280;46113;50.130;8.526;2024-03-07T04:12:41;99714.66;;;-4.27;88.04
27685;BME280;46113;50.130;8.526;2024-03-07T04:15:12;99720.81;;;-4.14;88.43
27685;BME280;46113;50.130;8.526;2024-03-07T04:17:40;99723.38;;;-4.16;88.46
27685;BME280;46113;50.130;8.526;2024-03-07T04:20:07;99725.94;;;-4.16;88.16
27685;BME280;46113;50.130;8.526;2024-03-07T04:22:37;99715.66;;;-4.13;87.77
27685;BME280;46113;50.130;8.526;2024-03-07T04:25:07;99715.69;;;-4.11;87.70
27685;BME280;46113;50.130;8.526;2024-03-07T04:27:34;99719.13;;;-4.09;87.77
27685;BME280;46113;50.130;8.526;2024-03-07T04:30:04;99716.59;;;-4.06;88.10
27685;BME280;46113;50.130;8.526;2024-03-07T04:32:31;99716.59;;;-4.06;87.76
27685;BME280;46113;50.130;8.526;2024-03-07T04:34:58;99717.38;;;-4.12;88.07
27685;BME280;46113;50.130;8.526;2024-03-07T04:37:26;99712.28;;;-4.04;88.07
27685;BME280;46113;50.130;8.526;2024-03-07T04:39:53;99720.91;;;-4.03;88.00
27685;BME280;46113;50.130;8.526;2024-03-07T04:42:20;99708.03;;;-3.97;87.52
27685;BME280;46113;50.130;8.526;2024-03-07T04:44:47;99711.47;;;-3.98;87.92
27685;BME280;46113;50.130;8.526;2024-03-07T04:47:14;99707.25;;;-3.88;88.39
27685;BME280;46113;50.130;8.526;2024-03-07T04:49:40;99701.22;;;-3.90;88.23
27685;BME280;46113;50.130;8.526;2024-03-07T04:52:10;99709.03;;;-3.81;88.34
27685;BME280;46113;50.130;8.526;2024-03-07T04:54:36;99707.28;;;-3.84;87.82
27685;BME280;46113;50.130;8.526;2024-03-07T04:57:03;99713.38;;;-3.75;88.04
27685;BME280;46113;50.130;8.526;2024-03-07T04:59:30;99703.09;;;-3.68;88.14
27685;BME280;46113;50.130;8.526;2024-03-07T05:01:57;99714.38;;;-3.61;88.44
27685;BME280;46113;50.130;8.526;2024-03-07T05:04:26;99712.53;;;-3.76;87.42
27685;BME280;46113;50.130;8.526;2024-03-07T05:06:55;99710.06;;;-3.60;88.59
27685;BME280;46113;50.130;8.526;2024-03-07T05:09:24;99710.09;;;-3.56;87.69
27685;BME280;46113;50.130;8.526;2024-03-07T05:11:52;99711.84;;;-3.48;87.75
27685;BME280;46113;50.130;8.526;2024-03-07T05:14:20;99710.19;;;-3.42;88.29
27685;BME280;46113;50.130;8.526;2024-03-07T05:16:48;99711.06;;;-3.43;87.61
27685;BME280;46113;50.130;8.526;2024-03-07T05:19:35;99712.66;;;-3.57;86.99
27685;BME280;46113;50.130;8.526;2024-03-07T05:22:02;99711.81;;;-3.58;87.61
27685;BME280;46113;50.130;8.526;2024-03-07T05:24:32;99714.56;;;-3.36;87.10
27685;BME280;46113;50.130;8.526;2024-03-07T05:27:01;99708.56;;;-3.30;86.65
27685;BME280;46113;50.130;8.526;2024-03-07T05:29:28;99717.09;;;-3.41;86.79
27685;BME280;46113;50.130;8.526;2024-03-07T05:31:55;99715.28;;;-3.56;86.42
27685;BME280;46113;50.130;8.526;2024-03-07T05:34:42;99709.28;;;-3.50;87.15
27685;BME280;46113;50.130;8.526;2024-03-07T05:37:09;99711.84;;;-3.51;86.37
27685;BME280;46113;50.130;8.526;2024-03-07T05:39:36;99713.53;;;-3.58;86.90
27685;BME280;46113;50.130;8.526;2024-03-07T05:42:03;99719.53;;;-3.62;86.17
27685;BME280;46113;50.130;8.526;2024-03-07T05:44:30;99714.34;;;-3.62;86.42
27685;BME280;46113;50.130;8.526;2024-03-07T05:46:57;99718.66;;;-3.61;86.94
27685;BME280;46113;50.130;8.526;2024-03-07T05:49:24;99720.41;;;-3.59;88.08
27685;BME280;46113;50.130;8.526;2024-03-07T05:51:50;99730.34;;;-4.05;87.58
27685;BME280;46113;50.130;8.526;2024-03-07T05:54:17;99723.78;;;-3.69;87.90
27685;BME280;46113;50.130;8.526;2024-03-07T05:56:44;99721.28;;;-3.58;87.14
27685;BME280;46113;50.130;8.526;2024-03-07T05:59:10;99726.38;;;-3.69;87.96
27685;BME280;46113;50.130;8.526;2024-03-07T06:01:38;99729.97;;;-3.51;87.42
27685;BME280;46113;50.130;8.526;2024-03-07T06:04:06;99733.34;;;-3.59;87.99
27685;BME280;46113;50.130;8.526;2024-03-07T06:06:34;99735.22;;;-3.37;87.37
27685;BME280;46113;50.130;8.526;2024-03-07T06:09:04;99728.41;;;-3.26;86.65
27685;BME280;46113;50.130;8.526;2024-03-07T06:11:37;99726.72;;;-3.19;87.13
27685;BME280;46113;50.130;8.526;2024-03-07T06:14:06;99731.06;;;-3.15;87.17
27685;BME280;46113;50.130;8.526;2024-03-07T06:16:36;99731.00;;;-3.28;87.06
27685;BME280;46113;50.130;8.526;2024-03-07T06:19:03;99725.91;;;-3.09;86.78
27685;BME280;46113;50.130;8.526;2024-03-07T06:21:37;99734.44;;;-3.27;86.78
27685;BME280;46113;50.130;8.526;2024-03-07T06:24:06;99725.06;;;-3.09;85.33
27685;BME280;46113;50.130;8.526;2024-03-07T06:26:35;99719.84;;;-3.14;85.38
27685;BME280;46113;50.130;8.526;2024-03-07T06:29:15;99715.56;;;-3.13;84.79
27685;BME280;46113;50.130;8.526;2024-03-07T06:31:45;99713.78;;;-3.19;86.00
27685;BME280;46113;50.130;8.526;2024-03-07T06:34:16;99712.13;;;-3.11;85.55
27685;BME280;46113;50.130;8.526;2024-03-07T06:36:44;99709.53;;;-3.08;85.04
27685;BME280;46113;50.130;8.526;2024-03-07T06:39:11;99710.34;;;-3.15;85.67
27685;BME280;46113;50.130;8.526;2024-03-07T06:41:39;99718.19;;;-3.03;85.49
27685;BME280;46113;50.130;8.526;2024-03-07T06:44:06;99714.81;;;-2.94;85.77
27685;BME280;46113;50.130;8.526;2024-03-07T06:46:34;99706.03;;;-3.18;85.44
27685;BME280;46113;50.130;8.526;2024-03-07T06:49:01;99710.47;;;-2.93;85.85
27685;BME280;46113;50.130;8.526;2024-03-07T06:51:28;99702.78;;;-2.79;85.03
27685;BME280;46113;50.130;8.526;2024-03-07T06:53:55;99702.72;;;-2.85;85.36
27685;BME280;46113;50.130;8.526;2024-03-07T06:56:23;99704.38;;;-3.05;85.75
27685;BME280;46113;50.130;8.526;2024-03-07T06:58:51;99696.69;;;-2.88;84.99
27685;BME280;46113;50.130;8.526;2024-03-07T07:01:18;99706.19;;;-2.91;84.21
27685;BME280;46113;50.130;8.526;2024-03-07T07:03:46;99711.47;;;-2.62;83.98
27685;BME280;46113;50.130;8.526;2024-03-07T07:06:15;99707.91;;;-2.89;84.28
27685;BME280;46113;50.130;8.526;2024-03-07T07:08:42;99699.38;;;-2.58;84.14
27685;BME280;46113;50.130;8.526;2024-03-07T07:11:10;99705.53;;;-2.25;83.71
27685;BME280;46113;50.130;8.526;2024-03-07T07:13:38;99703.75;;;-2.49;82.54
27685;BME280;46113;50.130;8.526;2024-03-07T07:16:06;99700.38;;;-1.97;82.68
27685;BME280;46113;50.130;8.526;2024-03-07T07:18:33;99695.19;;;-1.97;82.62
27685;BME280;46113;50.130;8.526;2024-03-07T07:21:02;99700.38;;;-2.17;82.54
27685;BME280;46113;50.130;8.526;2024-03-07T07:23:30;99706.41;;;-2.15;82.37
27685;BME280;46113;50.130;8.526;2024-03-07T07:25:57;99701.25;;;-1.90;81.42
27685;BME280;46113;50.130;8.526;2024-03-07T07:28:24;99696.06;;;-1.70;80.65
27685;BME280;46113;50.130;8.526;2024-03-07T07:30:51;99695.22;;;-1.65;80.09
27685;BME280;46113;50.130;8.526;2024-03-07T07:33:18;99688.25;;;-1.76;81.27
27685;BME280;46113;50.130;8.526;2024-03-07T07:35:45;99687.38;;;-1.36;80.09
27685;BME280;46113;50.130;8.526;2024-03-07T07:38:12;99694.28;;;-1.36;80.19
27685;BME280;46113;50.130;8.526;2024-03-07T07:40:42;99689.16;;;-1.63;79.42
27685;BME280;46113;50.130;8.526;2024-03-07T07:43:10;99690.03;;;-1.75;80.85
27685;BME280;46113;50.130;8.526;2024-03-07T07:45:47;99684.72;;;-1.03;80.07
27685;BME280;46113;50.130;8.526;2024-03-07T07:48:14;99685.44;;;-0.68;79.37
27685;BME280;46113;50.130;8.526;2024-03-07T07:50:43;99688.16;;;-0.98;79.68
27685;BME280;46113;50.130;8.526;2024-03-07T07:53:10;99688.88;;;-0.60;77.83
27685;BME280;46113;50.130;8.526;2024-03-07T07:55:37;99689.75;;;-0.63;77.98
27685;BME280;46113;50.130;8.526;2024-03-07T07:58:04;99686.22;;;-0.54;77.36
27685;BME280;46113;50.130;8.526;2024-03-07T08:00:31;99686.97;;;-0.30;76.33
27685;BME280;46113;50.130;8.526;2024-03-07T08:03:06;99686.03;;;-0.24;76.64
27685;BME280;46113;50.130;8.526;2024-03-07T08:05:34;99688.41;;;0.10;75.69
27685;BME280;46113;50.130;8.526;2024-03-07T08:08:04;99683.25;;;0.07;75.17
27685;BME280;46113;50.130;8.526;2024-03-07T08:10:35;99684.03;;;0.19;75.69
27685;BME280;46113;50.130;8.526;2024-03-07T08:13:03;99684.84;;;0.25;74.36
27685;BME280;46113;50.130;8.526;2024-03-07T08:15:31;99683.31;;;-0.02;75.49
27685;BME280;46113;50.130;8.526;2024-03-07T08:17:58;99692.78;;;0.10;75.62
27685;BME280;46113;50.130;8.526;2024-03-07T08:20:26;99690.13;;;0.13;74.69
27685;BME280;46113;50.130;8.526;2024-03-07T08:22:54;99677.84;;;0.30;74.75
27685;BME280;46113;50.130;8.526;2024-03-07T08:25:26;99684.16;;;0.03;74.28
27685;BME280;46113;50.130;8.526;2024-03-07T08:27:54;99681.31;;;0.31;75.02
27685;BME280;46113;50.130;8.526;2024-03-07T08:30:23;99679.66;;;0.24;74.43
27685;BME280;46113;50.130;8.526;2024-03-07T08:32:54;99674.28;;;0.42;73.71
27685;BME280;46113;50.130;8.526;2024-03-07T08:35:23;99678.59;;;0.43;74.78
27685;BME280;46113;50.130;8.526;2024-03-07T08:37:54;99674.25;;;0.46;74.07
27685;BME280;46113;50.130;8.526;2024-03-07T08:40:27;99678.56;;;0.48;73.09
27685;BME280;46113;50.130;8.526;2024-03-07T08:42:58;99678.59;;;0.43;73.17
27685;BME280;46113;50.130;8.526;2024-03-07T08:45:26;99678.53;;;0.53;74.48
27685;BME280;46113;50.130;8.526;2024-03-07T08:47:54;99674.16;;;0.55;73.57
27685;BME280;46113;50.130;8.526;2024-03-07T08:50:22;99675.53;;;0.89;72.76
27685;BME280;46113;50.130;8.526;2024-03-07T08:52:50;99677.16;;;1.04;73.69
27685;BME280;46113;50.130;8.526;2024-03-07T08:55:19;99673.78;;;0.91;71.40
27685;BME280;46113;50.130;8.526;2024-03-07T08:57:46;99673.19;;;0.62;71.21
27685;BME280;46113;50.130;8.526;2024-03-07T09:00:16;99670.75;;;1.28;70.83
27685;BME280;46113;50.130;8.526;2024-03-07T09:02:51;99674.09;;;1.40;70.89
27685;BME280;46113;50.130;8.526;2024-03-07T09:05:22;99675.84;;;1.39;71.25
27685;BME280;46113;50.130;8.526;2024-03-07T09:07:54;99681.72;;;0.81;69.76
27685;BME280;46113;50.130;8.526;2024-03-07T09:10:21;99675.28;;;1.12;69.64
27685;BME280;46113;50.130;8.526;2024-03-07T09:12:51;99675.25;;;1.18;69.85
27685;BME280;46113;50.130;8.526;2024-03-07T09:15:19;99676.25;;;1.05;68.63
27685;BME280;46113;50.130;8.526;2024-03-07T09:17:49;99674.19;;;1.30;69.41
27685;BME280;46113;50.130;8.526;2024-03-07T09:20:16;99675.06;;;1.31;69.40
27685;BME280;46113;50.130;8.526;2024-03-07T09:22:46;99672.81;;;1.70;68.15
27685;BME280;46113;50.130;8.526;2024-03-07T09:25:14;99680.69;;;1.66;69.36
27685;BME280;46113;50.130;8.526;2024-03-07T09:27:40;99682.28;;;1.76;68.63
27685;BME280;46113;50.130;8.526;2024-03-07T09:30:08;99679.19;;;1.47;67.30
27685;BME280;46113;50.130;8.526;2024-03-07T09:32:39;99670.19;;;1.70;67.00
27685;BME280;46113;50.130;8.526;2024-03-07T09:35:08;99664.13;;;2.25;67.06
27685;BME280;46113;50.130;8.526;2024-03-07T09:37:42;99667.13;;;2.01;68.22
27685;BME280;46113;50.130;8.526;2024-03-07T09:40:11;99673.09;;;2.08;66.71
27685;BME280;46113;50.130;8.526;2024-03-07T09:42:44;99666.13;;;2.09;66.82
27685;BME280;46113;50.130;8.526;2024-03-07T09:45:14;99662.03;;;2.46;65.38
27685;BME280;46113;50.130;8.526;2024-03-07T09:47:45;99656.63;;;2.57;64.91
27685;BME280;46113;50.130;8.526;2024-03-07T09:50:17;99662.06;;;2.90;65.60
27685;BME280;46113;50.130;8.526;2024-03-07T09:52:55;99654.69;;;2.66;64.36
27685;BME280;46113;50.130;8.526;2024-03-07T09:55:22;99661.78;;;3.05;63.58
27685;BME280;46113;50.130;8.526;2024-03-07T09:57:54;99661.91;;;2.99;64.47
27685;BME280;46113;50.130;8.526;2024-03-07T10:00:24;99659.91;;;3.12;63.25
27685;BME280;46113;50.130;8.526;2024-03-07T10:02:58;99657.25;;;3.56;63.57
27685;BME280;46113;50.130;8.526;2024-03-07T10:05:29;99664.00;;;3.26;62.97
27685;BME280;46113;50.130;8.526;2024-03-07T10:07:57;99661.31;;;4.08;60.43
27685;BME280;46113;50.130;8.526;2024-03-07T10:10:24;99664.38;;;3.05;62.44
27685;BME280;46113;50.130;8.526;2024-03-07T10:12:51;99656.84;;;3.34;61.96
27685;BME280;46113;50.130;8.526;2024-03-07T10:15:20;99660.69;;;3.16;63.23
27685;BME280;46113;50.130;8.526;2024-03-07T10:17:47;99658.78;;;3.67;61.01
27685;BME280;46113;50.130;8.526;2024-03-07T10:20:18;99647.94;;;3.43;60.30
27685;BME280;46113;50.130;8.526;2024-03-07T10:22:48;99650.94;;;3.67;61.29
27685;BME280;46113;50.130;8.526;2024-03-07T10:25:20;99645.31;;;4.20;62.09
27685;BME280;46113;50.130;8.526;2024-03-07T10:27:51;99643.66;;;4.49;58.01
27685;BME280;46113;50.130;8.526;2024-03-07T10:30:19;99643.03;;;4.41;58.57
27685;BME280;46113;50.130;8.526;2024-03-07T10:32:59;99638.66;;;4.05;60.37
27685;BME280;46113;50.130;8.526;2024-03-07T10:35:29;99632.38;;;3.76;59.91
27685;BME280;46113;50.130;8.526;2024-03-07T10:37:58;99632.75;;;3.97;60.30
27685;BME280;46113;50.130;8.526;2024-03-07T10:40:28;99640.47;;;4.03;58.91
27685;BME280;46113;50.130;8.526;2024-03-07T10:42:57;99641.34;;;4.38;58.48
27685;BME280;46113;50.130;8.526;2024-03-07T10:45:27;99631.88;;;4.33;57.64
27685;BME280;46113;50.130;8.526;2024-03-07T10:47:56;99623.00;;;4.38;56.83
27685;BME280;46113;50.130;8.526;2024-03-07T10:59:09;99624.84;;;4.00;59.82
27685;BME280;46113;50.130;8.526;2024-03-07T11:01:41;99622.47;;;3.89;57.87
27685;BME280;46113;50.130;8.526;2024-03-07T11:04:10;99614.44;;;3.97;58.30
27685;BME280;46113;50.130;8.526;2024-03-07T11:06:41;99610.41;;;4.18;57.80
27685;BME280;46113;50.130;8.526;2024-03-07T11:09:08;99611.31;;;3.82;58.19
27685;BME280;46113;50.130;8.526;2024-03-07T11:11:39;99604.19;;;4.22;58.91
27685;BME280;46113;50.130;8.526;2024-03-07T11:14:11;99604.16;;;4.24;57.90
27685;BME280;46113;50.130;8.526;2024-03-07T11:16:41;99610.84;;;4.01;58.37
27685;BME280;46113;50.130;8.526;2024-03-07T11:21:46;99595.97;;;4.70;58.60
27685;BME280;46113;50.130;8.526;2024-03-07T11:24:26;99594.34;;;4.96;59.03
27685;BME280;46113;50.130;8.526;2024-03-07T11:26:56;99588.06;;;4.71;57.32
27685;BME280;46113;50.130;8.526;2024-03-07T11:32:14;99580.59;;;5.48;56.32
27685;BME280;46113;50.130;8.526;2024-03-07T11:34:42;99572.09;;;5.68;56.09
27685;BME280;46113;50.130;8.526;2024-03-07T11:37:20;99563.81;;;5.23;55.71
27685;BME280;46113;50.130;8.526;2024-03-07T11:40:03;99564.53;;;5.00;56.90
27685;BME280;46113;50.130;8.526;2024-03-07T11:42:35;99561.66;;;5.36;56.95
27685;BME280;46113;50.130;8.526;2024-03-07T11:45:03;99559.13;;;5.33;56.09
27685;BME280;46113;50.130;8.526;2024-03-07T11:47:39;99551.06;;;5.11;56.17
27685;BME280;46113;50.130;8.526;2024-03-07T11:50:07;99545.88;;;5.09;55.55
27685;BME280;46113;50.130;8.526;2024-03-07T11:52:38;99553.78;;;5.36;56.43
27685;BME280;46113;50.130;8.526;2024-03-07T11:55:10;99542.88;;;5.50;56.41
27685;BME280;46113;50.130;8.526;2024-03-07T11:57:38;99543.09;;;5.14;54.78
27685;BME280;46113;50.130;8.526;2024-03-07T12:00:06;99534.59;;;5.64;55.96
27685;BME280;46113;50.130;8.526;2024-03-07T12:02:38;99535.50;;;5.33;55.73
27685;BME280;46113;50.130;8.526;2024-03-07T12:05:07;99524.97;;;5.35;54.97
27685;BME280;46113;50.130;8.526;2024-03-07T12:07:34;99519.06;;;5.28;53.60
27685;BME280;46113;50.130;8.526;2024-03-07T12:10:03;99521.56;;;5.32;54.38
27685;BME280;46113;50.130;8.526;2024-03-07T12:12:31;99511.88;;;5.62;54.24
27685;BME280;46113;50.130;8.526;2024-03-07T12:14:59;99514.56;;;5.87;54.00
27685;BME280;46113;50.130;8.526;2024-03-07T12:17:29;99505.53;;;5.42;50.86
27685;BME280;46113;50.130;8.526;2024-03-07T12:19:58;99496.22;;;5.60;52.10
27685;BME280;46113;50.130;8.526;2024-03-07T12:22:29;99502.75;;;5.73;51.97
27685;BME280;46113;50.130;8.526;2024-03-07T12:25:02;99497.00;;;5.62;50.60
27685;BME280;46113;50.130;8.526;2024-03-07T12:27:29;99502.13;;;5.67;51.39
27685;BME280;46113;50.130;8.526;2024-03-07T12:29:56;99500.44;;;5.36;52.74
27685;BME280;46113;50.130;8.526;2024-03-07T12:32:24;99496.19;;;5.04;52.28
27685;BME280;46113;50.130;8.526;2024-03-07T12:34:52;99499.19;;;4.63;53.16
27685;BME280;46113;50.130;8.526;2024-03-07T12:37:19;99498.97;;;4.70;54.59
27685;BME280;46113;50.130;8.526;2024-03-07T12:39:54;99496.72;;;4.57;53.10
27685;BME280;46113;50.130;8.526;2024-03-07T12:42:31;99493.31;;;4.53;52.95
27685;BME280;46113;50.130;8.526;2024-03-07T12:45:05;99495.41;;;4.42;53.82
27685;BME280;46113;50.130;8.526;2024-03-07T12:47:32;99488.97;;;4.22;54.23
27685;BME280;46113;50.130;8.526;2024-03-07T12:49:59;99492.03;;;4.38;54.79
27685;BME280;46113;50.130;8.526;2024-03-07T12:52:27;99486.91;;;4.34;54.44
27685;BME280;46113;50.130;8.526;2024-03-07T12:54:54;99479.25;;;4.58;54.53
27685;BME280;46113;50.130;8.526;2024-03-07T12:57:22;99486.44;;;4.49;54.50
27685;BME280;46113;50.130;8.526;2024-03-07T12:59:50;99490.16;;;4.10;54.75
27685;BME280;46113;50.130;8.526;2024-03-07T13:02:17;99488.09;;;3.90;53.34
27685;BME280;46113;50.130;8.526;2024-03-07T13:04:44;99488.00;;;3.93;53.49
27685;BME280;46113;50.130;8.526;2024-03-07T13:07:11;99483.53;;;3.97;53.96
27685;BME280;46113;50.130;8.526;2024-03-07T13:09:42;99478.66;;;4.16;54.00
27685;BME280;46113;50.130;8.526;2024-03-07T13:12:11;99480.72;;;3.71;56.52
27685;BME280;46113;50.130;8.526;2024-03-07T13:14:40;99477.69;;;4.20;55.89
27685;BME280;46113;50.130;8.526;2024-03-07T13:17:09;99478.81;;;4.42;54.58
27685;BME280;46113;50.130;8.526;2024-03-07T13:19:37;99474.16;;;4.21;53.57
27685;BME280;46113;50.130;8.526;2024-03-07T13:22:05;99474.00;;;4.58;54.82
27685;BME280;46113;50.130;8.526;2024-03-07T13:24:38;99483.72;;;4.54;53.22
27685;BME280;46113;50.130;8.526;2024-03-07T13:27:06;99475.97;;;4.79;53.89